sensor_id;sensor_type;location;lat;lon;timestamp;pressure;altitude;pressure_sealevel;temperature;humidity
41044;BME280;51680;49.806;18.774;2023-05-07T00:00:35;97548.22;;;15.08;72.18
41044;BME280;51680;49.806;18.774;2023-05-07T00:03:57;97546.78;;;15.04;72.42
41044;BME280;51680;49.806;18.774;2023-05-07T00:06:58;97548.66;;;15.02;72.03
41044;BME280;51680;49.806;18.774;2023-05-07T00:10:00;97544.97;;;15.05;72.29
41044;BME280;51680;49.806;18.774;2023-05-07T00:13:02;97557.53;;;15.01;72.25
41044;BME280;51680;49.806;18.774;2023-05-07T00:16:04;97554.78;;;15.03;72.27
41044;BME280;51680;49.806;18.774;2023-05-07T00:19:07;97551.44;;;15.01;72.29
41044;BME280;51680;49.806;18.774;2023-05-07T00:22:09;97543.19;;;14.94;71.99
41044;BME280;51680;49.806;18.774;2023-05-07T00:25:11;97549.41;;;14.93;71.76
41044;BME280;51680;49.806;18.774;2023-05-07T00:28:12;97544.41;;;14.90;72.39
41044;BME280;51680;49.806;18.774;2023-05-07T00:31:14;97540.31;;;14.86;72.14
41044;BME280;51680;49.806;18.774;2023-05-07T00:34:17;97540.56;;;14.83;71.88
41044;BME280;51680;49.806;18.774;2023-05-07T00:37:19;97550.59;;;14.78;71.95
41044;BME280;51680;49.806;18.774;2023-05-07T00:40:21;97555.75;;;14.80;71.94
41044;BME280;51680;49.806;18.774;2023-05-07T00:43:23;97554.66;;;14.82;72.09
41044;BME280;51680;49.806;18.774;2023-05-07T00:46:25;97558.72;;;14.86;72.20
41044;BME280;51680;49.806;18.774;2023-05-07T00:49:35;97562.31;;;14.85;72.17
41044;BME280;51680;49.806;18.774;2023-05-07T00:52:39;97563.50;;;14.81;72.13
41044;BME280;51680;49.806;18.774;2023-05-07T00:55:42;97556.22;;;14.74;72.29
41044;BME280;51680;49.806;18.774;2023-05-07T00:58:43;97561.00;;;14.69;72.31
41044;BME280;51680;49.806;18.774;2023-05-07T01:01:45;97556.94;;;14.65;72.31
41044;BME280;51680;49.806;18.774;2023-05-07T01:04:48;97558.97;;;14.61;72.65
41044;BME280;51680;49.806;18.774;2023-05-07T01:07:51;97567.34;;;14.55;72.90
41044;BME280;51680;49.806;18.774;2023-05-07T01:10:55;97567.66;;;14.51;72.95
41044;BME280;51680;49.806;18.774;2023-05-07T01:13:58;97568.97;;;14.45;72.82
41044;BME280;51680;49.806;18.774;2023-05-07T01:17:01;97563.97;;;14.42;72.76
41044;BME280;51680;49.806;18.774;2023-05-07T01:20:06;97562.53;;;14.38;72.46
41044;BME280;51680;49.806;18.774;2023-05-07T01:23:10;97561.06;;;14.34;72.64
41044;BME280;51680;49.806;18.774;2023-05-07T01:26:13;97568.13;;;14.34;72.61
41044;BME280;51680;49.806;18.774;2023-05-07T01:29:18;97573.38;;;14.34;72.49
41044;BME280;51680;49.806;18.774;2023-05-07T01:32:24;97560.25;;;14.34;72.34
41044;BME280;51680;49.806;18.774;2023-05-07T01:35:32;97561.19;;;14.33;72.15
41044;BME280;51680;49.806;18.774;2023-05-07T01:38:37;97563.00;;;14.32;72.18
41044;BME280;51680;49.806;18.774;2023-05-07T01:41:41;97565.13;;;14.27;72.25
41044;BME280;51680;49.806;18.774;2023-05-07T01:44:43;97565.34;;;14.24;72.13
41044;BME280;51680;49.806;18.774;2023-05-07T01:47:45;97574.41;;;14.20;72.12
41044;BME280;51680;49.806;18.774;2023-05-07T01:50:47;97575.34;;;14.19;72.25
41044;BME280;51680;49.806;18.774;2023-05-07T01:53:52;97577.97;;;14.19;72.18
41044;BME280;51680;49.806;18.774;2023-05-07T01:56:56;97574.41;;;14.20;71.99
41044;BME280;51680;49.806;18.774;2023-05-07T01:59:58;97577.97;;;14.19;72.07
41044;BME280;51680;49.806;18.774;2023-05-07T02:02:59;97563.91;;;14.20;72.08
41044;BME280;51680;49.806;18.774;2023-05-07T02:06:10;97577.97;;;14.19;72.26
41044;BME280;51680;49.806;18.774;2023-05-07T02:09:15;97570.44;;;14.15;72.46
41044;BME280;51680;49.806;18.774;2023-05-07T02:12:19;97579.03;;;14.17;72.48
41044;BME280;51680;49.806;18.774;2023-05-07T02:15:21;97573.19;;;14.13;72.61
41044;BME280;51680;49.806;18.774;2023-05-07T02:18:23;97575.06;;;14.11;72.73
41044;BME280;51680;49.806;18.774;2023-05-07T02:21:25;97575.81;;;14.13;72.71
41044;BME280;51680;49.806;18.774;2023-05-07T02:24:28;97576.53;;;14.15;72.39
41044;BME280;51680;49.806;18.774;2023-05-07T02:27:30;97572.94;;;14.16;72.85
41044;BME280;51680;49.806;18.774;2023-05-07T02:30:32;97573.19;;;14.13;72.86
41044;BME280;51680;49.806;18.774;2023-05-07T02:33:34;97572.22;;;14.14;72.76
41044;BME280;51680;49.806;18.774;2023-05-07T02:36:39;97571.50;;;14.12;73.04
41044;BME280;51680;49.806;18.774;2023-05-07T02:39:46;97567.09;;;14.13;73.00
41044;BME280;51680;49.806;18.774;2023-05-07T02:42:48;97570.66;;;14.12;72.93
41044;BME280;51680;49.806;18.774;2023-05-07T02:46:00;97572.22;;;14.14;73.26
41044;BME280;51680;49.806;18.774;2023-05-07T02:49:02;97567.94;;;14.13;73.20
41044;BME280;51680;49.806;18.774;2023-05-07T02:52:05;97575.22;;;14.10;73.14
41044;BME280;51680;49.806;18.774;2023-05-07T02:55:08;97571.34;;;14.03;73.40
41044;BME280;51680;49.806;18.774;2023-05-07T02:58:10;97577.84;;;13.86;74.68
41044;BME280;51680;49.806;18.774;2023-05-07T03:01:14;97575.00;;;13.89;73.39
41044;BME280;51680;49.806;18.774;2023-05-07T03:04:34;97578.59;;;13.88;73.55
41044;BME280;51680;49.806;18.774;2023-05-07T03:07:36;97572.28;;;13.91;73.64
41044;BME280;51680;49.806;18.774;2023-05-07T03:10:39;97577.53;;;13.91;73.36
41044;BME280;51680;49.806;18.774;2023-05-07T03:13:41;97579.53;;;13.87;73.31
41044;BME280;51680;49.806;18.774;2023-05-07T03:16:43;97581.44;;;13.85;73.22
41044;BME280;51680;49.806;18.774;2023-05-07T03:19:45;97582.41;;;13.84;73.16
41044;BME280;51680;49.806;18.774;2023-05-07T03:22:47;97592.03;;;13.84;73.33
41044;BME280;51680;49.806;18.774;2023-05-07T03:26:09;97594.78;;;13.82;73.23
41044;BME280;51680;49.806;18.774;2023-05-07T03:29:11;97594.16;;;13.79;73.28
41044;BME280;51680;49.806;18.774;2023-05-07T03:32:13;97595.13;;;13.78;73.26
41044;BME280;51680;49.806;18.774;2023-05-07T03:35:14;97593.31;;;13.78;73.20
41044;BME280;51680;49.806;18.774;2023-05-07T03:38:16;97586.41;;;13.77;73.26
41044;BME280;51680;49.806;18.774;2023-05-07T03:41:20;97595.22;;;13.76;73.42
41044;BME280;51680;49.806;18.774;2023-05-07T03:44:22;97602.38;;;13.74;73.55
41044;BME280;51680;49.806;18.774;2023-05-07T03:47:25;97602.59;;;13.71;73.30
41044;BME280;51680;49.806;18.774;2023-05-07T03:50:27;97605.00;;;13.74;73.25
41044;BME280;51680;49.806;18.774;2023-05-07T03:53:28;97600.47;;;13.76;73.41
41044;BME280;51680;49.806;18.774;2023-05-07T03:56:32;97611.47;;;13.81;73.31
41044;BME280;51680;49.806;18.774;2023-05-07T03:59:34;97612.94;;;13.85;73.17
41044;BME280;51680;49.806;18.774;2023-05-07T04:02:36;97614.59;;;13.86;73.17
41044;BME280;51680;49.806;18.774;2023-05-07T04:05:39;97616.50;;;13.84;73.14
41044;BME280;51680;49.806;18.774;2023-05-07T04:08:41;97613.38;;;13.79;73.12
41044;BME280;51680;49.806;18.774;2023-05-07T04:11:44;97620.63;;;13.76;73.34
41044;BME280;51680;49.806;18.774;2023-05-07T04:14:46;97626.94;;;13.73;73.39
41044;BME280;51680;49.806;18.774;2023-05-07T04:17:48;97633.88;;;13.74;73.26
41044;BME280;51680;49.806;18.774;2023-05-07T04:20:53;97627.56;;;13.77;73.23
41044;BME280;51680;49.806;18.774;2023-05-07T04:23:56;97632.56;;;13.80;73.27
41044;BME280;51680;49.806;18.774;2023-05-07T04:26:59;97637.94;;;13.78;73.49
41044;BME280;51680;49.806;18.774;2023-05-07T04:30:02;97652.00;;;13.77;73.36
41044;BME280;51680;49.806;18.774;2023-05-07T04:33:09;97650.44;;;13.75;73.64
41044;BME280;51680;49.806;18.774;2023-05-07T04:36:13;97656.63;;;13.74;73.80
41044;BME280;51680;49.806;18.774;2023-05-07T04:39:24;97666.19;;;13.75;73.88
41044;BME280;51680;49.806;18.774;2023-05-07T04:42:27;97662.75;;;13.74;73.74
41044;BME280;51680;49.806;18.774;2023-05-07T04:45:29;97668.81;;;13.75;73.76
41044;BME280;51680;49.806;18.774;2023-05-07T04:48:32;97670.47;;;13.76;73.88
41044;BME280;51680;49.806;18.774;2023-05-07T04:51:36;97681.72;;;13.78;73.98
41044;BME280;51680;49.806;18.774;2023-05-07T04:54:39;97672.88;;;13.79;73.86
41044;BME280;51680;49.806;18.774;2023-05-07T04:57:43;97682.13;;;13.84;73.94
41044;BME280;51680;49.806;18.774;2023-05-07T05:00:48;97684.00;;;13.82;73.66
41044;BME280;51680;49.806;18.774;2023-05-07T05:03:50;97683.06;;;13.83;73.78
41044;BME280;51680;49.806;18.774;2023-05-07T05:06:53;97683.78;;;13.85;73.61
41044;BME280;51680;49.806;18.774;2023-05-07T05:09:55;97684.50;;;13.87;73.46
41044;BME280;51680;49.806;18.774;2023-05-07T05:13:00;97682.72;;;13.88;73.62
41044;BME280;51680;49.806;18.774;2023-05-07T05:16:03;97690.00;;;13.84;73.37
41044;BME280;51680;49.806;18.774;2023-05-07T05:19:06;97696.28;;;13.82;73.27
41044;BME280;51680;49.806;18.774;2023-05-07T05:22:11;97693.28;;;13.75;73.47
41044;BME280;51680;49.806;18.774;2023-05-07T05:25:13;97696.59;;;13.77;73.66
41044;BME280;51680;49.806;18.774;2023-05-07T05:28:17;97698.53;;;13.75;73.71
41044;BME280;51680;49.806;18.774;2023-05-07T05:31:18;97697.91;;;13.72;73.76
41044;BME280;51680;49.806;18.774;2023-05-07T05:34:23;97695.38;;;13.70;73.59
41044;BME280;51680;49.806;18.774;2023-05-07T05:37:25;97706.84;;;13.69;73.59
41044;BME280;51680;49.806;18.774;2023-05-07T05:40:27;97700.94;;;13.66;73.58
41044;BME280;51680;49.806;18.774;2023-05-07T05:43:31;97698.22;;;13.67;73.75
41044;BME280;51680;49.806;18.774;2023-05-07T05:46:34;97702.75;;;13.65;73.60
41044;BME280;51680;49.806;18.774;2023-05-07T05:49:37;97704.41;;;13.66;73.82
41044;BME280;51680;49.806;18.774;2023-05-07T05:52:40;97710.50;;;13.67;73.92
41044;BME280;51680;49.806;18.774;2023-05-07T05:55:43;97707.66;;;13.70;73.76
41044;BME280;51680;49.806;18.774;2023-05-07T05:58:47;97714.81;;;13.68;74.00
41044;BME280;51680;49.806;18.774;2023-05-07T06:01:49;97709.88;;;13.63;73.74
41044;BME280;51680;49.806;18.774;2023-05-07T06:04:51;97712.72;;;13.60;73.75
41044;BME280;51680;49.806;18.774;2023-05-07T06:07:55;97714.72;;;13.57;73.80
41044;BME280;51680;49.806;18.774;2023-05-07T06:10:58;97719.56;;;13.50;74.05
41044;BME280;51680;49.806;18.774;2023-05-07T06:14:02;97721.88;;;13.42;73.75
41044;BME280;51680;49.806;18.774;2023-05-07T06:17:05;97726.72;;;13.36;73.45
41044;BME280;51680;49.806;18.774;2023-05-07T06:20:08;97719.38;;;13.41;73.70
41044;BME280;51680;49.806;18.774;2023-05-07T06:23:10;97725.97;;;13.46;73.60
41044;BME280;51680;49.806;18.774;2023-05-07T06:26:12;97723.47;;;13.45;73.72
41044;BME280;51680;49.806;18.774;2023-05-07T06:29:18;97719.97;;;13.44;73.73
41044;BME280;51680;49.806;18.774;2023-05-07T06:32:20;97724.72;;;13.39;73.97
41044;BME280;51680;49.806;18.774;2023-05-07T06:35:22;97727.06;;;13.31;73.82
41044;BME280;51680;49.806;18.774;2023-05-07T06:38:24;97730.81;;;13.27;73.71
41044;BME280;51680;49.806;18.774;2023-05-07T06:41:25;97732.41;;;13.30;73.98
41044;BME280;51680;49.806;18.774;2023-05-07T06:44:30;97738.47;;;13.30;73.89
41044;BME280;51680;49.806;18.774;2023-05-07T06:47:58;97735.84;;;13.30;73.97
41044;BME280;51680;49.806;18.774;2023-05-07T06:51:01;97739.31;;;13.31;74.15
41044;BME280;51680;49.806;18.774;2023-05-07T06:54:04;97746.13;;;13.33;74.33
41044;BME280;51680;49.806;18.774;2023-05-07T06:57:08;97742.97;;;13.28;74.38
41044;BME280;51680;49.806;18.774;2023-05-07T07:00:12;97746.66;;;13.26;74.75
41044;BME280;51680;49.806;18.774;2023-05-07T07:03:21;97757.78;;;13.17;74.69
41044;BME280;51680;49.806;18.774;2023-05-07T07:06:23;97757.16;;;13.13;74.77
41044;BME280;51680;49.806;18.774;2023-05-07T07:09:26;97760.06;;;13.09;74.85
41044;BME280;51680;49.806;18.774;2023-05-07T07:12:29;97768.06;;;13.07;74.81
41044;BME280;51680;49.806;18.774;2023-05-07T07:15:32;97769.19;;;13.03;74.84
41044;BME280;51680;49.806;18.774;2023-05-07T07:18:34;97766.59;;;13.03;74.80
41044;BME280;51680;49.806;18.774;2023-05-07T07:21:36;97763.00;;;13.04;74.58
41044;BME280;51680;49.806;18.774;2023-05-07T07:24:38;97763.84;;;13.05;74.63
41044;BME280;51680;49.806;18.774;2023-05-07T07:27:42;97770.16;;;13.02;75.02
41044;BME280;51680;49.806;18.774;2023-05-07T07:30:47;97773.44;;;12.92;75.15
41044;BME280;51680;49.806;18.774;2023-05-07T07:33:51;97776.16;;;12.90;75.26
41044;BME280;51680;49.806;18.774;2023-05-07T07:36:53;97782.88;;;12.94;75.54
41044;BME280;51680;49.806;18.774;2023-05-07T07:39:55;97783.00;;;12.93;75.57
41044;BME280;51680;49.806;18.774;2023-05-07T07:42:57;97789.81;;;12.95;75.86
41044;BME280;51680;49.806;18.774;2023-05-07T07:46:00;97791.50;;;12.96;75.71
41044;BME280;51680;49.806;18.774;2023-05-07T07:49:03;97792.75;;;12.91;75.34
41044;BME280;51680;49.806;18.774;2023-05-07T07:52:05;97793.03;;;12.86;75.64
41044;BME280;51680;49.806;18.774;2023-05-07T07:55:10;97792.09;;;12.87;75.95
41044;BME280;51680;49.806;18.774;2023-05-07T07:58:13;97799.19;;;12.73;75.99
41044;BME280;51680;49.806;18.774;2023-05-07T08:01:17;97798.22;;;12.61;76.43
41044;BME280;51680;49.806;18.774;2023-05-07T08:04:20;97810.06;;;12.54;76.80
41044;BME280;51680;49.806;18.774;2023-05-07T08:07:23;97805.41;;;12.45;76.37
41044;BME280;51680;49.806;18.774;2023-05-07T08:10:25;97817.09;;;12.40;76.80
41044;BME280;51680;49.806;18.774;2023-05-07T08:13:33;97814.56;;;12.38;76.57
41044;BME280;51680;49.806;18.774;2023-05-07T08:16:36;97815.53;;;12.37;76.87
41044;BME280;51680;49.806;18.774;2023-05-07T08:19:38;97816.47;;;12.36;76.97
41044;BME280;51680;49.806;18.774;2023-05-07T08:22:43;97824.09;;;12.39;76.44
41044;BME280;51680;49.806;18.774;2023-05-07T08:25:45;97827.16;;;12.46;76.27
41044;BME280;51680;49.806;18.774;2023-05-07T08:28:47;97829.78;;;12.46;76.20
41044;BME280;51680;49.806;18.774;2023-05-07T08:31:50;97836.81;;;12.45;75.69
41044;BME280;51680;49.806;18.774;2023-05-07T08:34:52;97833.66;;;12.40;76.05
41044;BME280;51680;49.806;18.774;2023-05-07T08:37:54;97843.69;;;12.34;75.95
41044;BME280;51680;49.806;18.774;2023-05-07T08:40:56;97845.44;;;12.33;75.79
41044;BME280;51680;49.806;18.774;2023-05-07T08:44:00;97843.59;;;12.35;75.64
41044;BME280;51680;49.806;18.774;2023-05-07T08:47:07;97847.53;;;12.28;75.85
41044;BME280;51680;49.806;18.774;2023-05-07T08:50:11;97852.13;;;12.25;76.50
41044;BME280;51680;49.806;18.774;2023-05-07T08:53:16;97855.94;;;12.19;76.27
41044;BME280;51680;49.806;18.774;2023-05-07T08:56:18;97854.09;;;12.21;76.72
41044;BME280;51680;49.806;18.774;2023-05-07T08:59:21;97861.63;;;12.26;75.89
41044;BME280;51680;49.806;18.774;2023-05-07T09:02:24;97860.59;;;12.28;76.44
41044;BME280;51680;49.806;18.774;2023-05-07T09:05:28;97873.16;;;12.23;76.12
41044;BME280;51680;49.806;18.774;2023-05-07T09:08:30;97877.44;;;12.24;76.51
41044;BME280;51680;49.806;18.774;2023-05-07T09:11:35;97871.06;;;12.28;75.84
41044;BME280;51680;49.806;18.774;2023-05-07T09:14:37;97869.00;;;12.33;75.61
41044;BME280;51680;49.806;18.774;2023-05-07T09:17:40;97877.81;;;12.32;75.49
41044;BME280;51680;49.806;18.774;2023-05-07T09:20:43;97873.31;;;12.34;75.30
41044;BME280;51680;49.806;18.774;2023-05-07T09:23:45;97878.94;;;12.28;74.67
41044;BME280;51680;49.806;18.774;2023-05-07T09:26:48;97888.66;;;12.26;75.48
41044;BME280;51680;49.806;18.774;2023-05-07T09:29:50;97894.84;;;12.25;75.00
41044;BME280;51680;49.806;18.774;2023-05-07T09:32:53;97901.13;;;11.95;75.85
41044;BME280;51680;49.806;18.774;2023-05-07T09:35:56;97894.78;;;11.85;76.02
41044;BME280;51680;49.806;18.774;2023-05-07T09:38:59;97904.09;;;11.89;76.32
41044;BME280;51680;49.806;18.774;2023-05-07T09:42:02;97907.28;;;11.80;76.57
41044;BME280;51680;49.806;18.774;2023-05-07T09:45:08;97902.34;;;11.75;76.33
41044;BME280;51680;49.806;18.774;2023-05-07T09:48:16;97904.38;;;11.70;76.80
41044;BME280;51680;49.806;18.774;2023-05-07T09:51:24;97910.34;;;11.72;76.58
41044;BME280;51680;49.806;18.774;2023-05-07T09:54:29;97909.13;;;11.64;76.68
41044;BME280;51680;49.806;18.774;2023-05-07T09:57:34;97911.16;;;11.59;76.93
41044;BME280;51680;49.806;18.774;2023-05-07T10:00:39;97921.50;;;11.46;77.23
41044;BME280;51680;49.806;18.774;2023-05-07T10:03:48;97922.97;;;11.36;77.63
41044;BME280;51680;49.806;18.774;2023-05-07T10:06:52;97929.38;;;11.31;77.79
41044;BME280;51680;49.806;18.774;2023-05-07T10:09:55;97936.03;;;11.36;77.67
41044;BME280;51680;49.806;18.774;2023-05-07T10:13:05;97930.34;;;11.30;77.80
41044;BME280;51680;49.806;18.774;2023-05-07T10:16:12;97931.22;;;11.15;77.44
41044;BME280;51680;49.806;18.774;2023-05-07T10:19:20;97939.66;;;11.04;78.41
41044;BME280;51680;49.806;18.774;2023-05-07T10:22:27;97939.66;;;11.04;78.72
41044;BME280;51680;49.806;18.774;2023-05-07T10:25:31;97935.88;;;11.10;77.66
41044;BME280;51680;49.806;18.774;2023-05-07T10:28:43;97930.03;;;11.20;77.39
41044;BME280;51680;49.806;18.774;2023-05-07T10:31:53;97945.56;;;11.37;77.79
41044;BME280;51680;49.806;18.774;2023-05-07T10:35:02;97940.91;;;11.42;77.34
41044;BME280;51680;49.806;18.774;2023-05-07T10:38:07;97942.63;;;11.57;76.46
41044;BME280;51680;49.806;18.774;2023-05-07T10:41:11;97946.06;;;11.44;76.52
41044;BME280;51680;49.806;18.774;2023-05-07T10:44:26;97945.41;;;11.40;76.66
41044;BME280;51680;49.806;18.774;2023-05-07T10:47:29;97945.13;;;11.45;75.74
41044;BME280;51680;49.806;18.774;2023-05-07T10:50:36;97949.72;;;11.55;75.66
41044;BME280;51680;49.806;18.774;2023-05-07T10:53:39;97961.84;;;11.27;76.28
41044;BME280;51680;49.806;18.774;2023-05-07T10:56:49;97945.22;;;11.14;76.36
41044;BME280;51680;49.806;18.774;2023-05-07T11:00:42;97949.59;;;11.13;76.72
41044;BME280;51680;49.806;18.774;2023-05-07T11:04:15;97949.59;;;11.13;76.25
41044;BME280;51680;49.806;18.774;2023-05-07T11:07:38;97950.59;;;11.11;76.19
41044;BME280;51680;49.806;18.774;2023-05-07T11:10:53;97950.19;;;11.03;76.63
41044;BME280;51680;49.806;18.774;2023-05-07T11:14:14;97949.59;;;11.13;76.32
41044;BME280;51680;49.806;18.774;2023-05-07T11:17:24;97957.88;;;11.06;76.38
41044;BME280;51680;49.806;18.774;2023-05-07T11:20:49;97957.59;;;11.10;77.33
41044;BME280;51680;49.806;18.774;2023-05-07T11:24:07;97963.44;;;11.15;76.10
41044;BME280;51680;49.806;18.774;2023-05-07T11:27:24;97961.00;;;10.97;76.80
41044;BME280;51680;49.806;18.774;2023-05-07T11:30:29;97964.28;;;11.00;75.97
41044;BME280;51680;49.806;18.774;2023-05-07T11:33:31;97967.59;;;10.88;76.71
41044;BME280;51680;49.806;18.774;2023-05-07T11:36:41;97967.66;;;11.02;76.26
41044;BME280;51680;49.806;18.774;2023-05-07T11:39:47;97979.28;;;11.12;75.89
41044;BME280;51680;49.806;18.774;2023-05-07T11:42:49;97975.56;;;11.16;75.54
41044;BME280;51680;49.806;18.774;2023-05-07T11:45:50;97977.25;;;11.17;75.93
41044;BME280;51680;49.806;18.774;2023-05-07T11:48:52;97976.53;;;11.29;75.11
41044;BME280;51680;49.806;18.774;2023-05-07T11:51:54;97977.72;;;11.39;74.76
41044;BME280;51680;49.806;18.774;2023-05-07T11:54:58;97966.81;;;11.47;74.88
41044;BME280;51680;49.806;18.774;2023-05-07T11:58:00;97973.63;;;11.49;75.41
41044;BME280;51680;49.806;18.774;2023-05-07T12:01:02;97983.75;;;11.40;75.16
41044;BME280;51680;49.806;18.774;2023-05-07T12:04:04;97995.94;;;11.25;75.89
41044;BME280;51680;49.806;18.774;2023-05-07T12:07:11;97985.16;;;11.16;76.01
41044;BME280;51680;49.806;18.774;2023-05-07T12:10:15;97995.97;;;10.94;76.77
41044;BME280;51680;49.806;18.774;2023-05-07T12:13:17;98005.16;;;10.70;78.10
41044;BME280;51680;49.806;18.774;2023-05-07T12:16:19;98002.69;;;10.67;77.80
41044;BME280;51680;49.806;18.774;2023-05-07T12:19:21;97998.44;;;10.51;78.38
41044;BME280;51680;49.806;18.774;2023-05-07T12:22:23;97994.28;;;10.62;78.45
41044;BME280;51680;49.806;18.774;2023-05-07T12:25:26;97999.59;;;10.45;79.20
41044;BME280;51680;49.806;18.774;2023-05-07T12:28:28;98003.81;;;10.63;78.03
41044;BME280;51680;49.806;18.774;2023-05-07T12:31:31;98004.34;;;10.70;78.36
41044;BME280;51680;49.806;18.774;2023-05-07T12:34:33;98004.84;;;10.61;79.01
41044;BME280;51680;49.806;18.774;2023-05-07T12:37:35;98003.31;;;10.72;78.50
41044;BME280;51680;49.806;18.774;2023-05-07T12:40:40;98027.03;;;10.52;78.95
41044;BME280;51680;49.806;18.774;2023-05-07T12:43:44;98011.38;;;10.52;78.90
41044;BME280;51680;49.806;18.774;2023-05-07T12:46:46;98010.06;;;10.28;80.37
41044;BME280;51680;49.806;18.774;2023-05-07T12:49:48;98026.19;;;10.19;80.80
41044;BME280;51680;49.806;18.774;2023-05-07T12:52:50;98023.50;;;10.05;80.78
41044;BME280;51680;49.806;18.774;2023-05-07T12:55:54;98018.69;;;10.13;80.33
41044;BME280;51680;49.806;18.774;2023-05-07T12:58:57;98015.00;;;10.17;79.82
41044;BME280;51680;49.806;18.774;2023-05-07T13:01:59;98017.16;;;10.26;79.85
41044;BME280;51680;49.806;18.774;2023-05-07T13:05:01;98017.47;;;10.20;79.61
41044;BME280;51680;49.806;18.774;2023-05-07T13:08:03;98020.69;;;10.25;79.51
41044;BME280;51680;49.806;18.774;2023-05-07T13:11:07;98015.63;;;10.22;79.89
41044;BME280;51680;49.806;18.774;2023-05-07T13:14:09;98026.66;;;10.27;79.18
41044;BME280;51680;49.806;18.774;2023-05-07T13:17:11;98015.25;;;10.45;79.14
41044;BME280;51680;49.806;18.774;2023-05-07T13:20:13;98014.56;;;10.57;78.69
41044;BME280;51680;49.806;18.774;2023-05-07T13:23:15;98023.78;;;10.64;78.70
41044;BME280;51680;49.806;18.774;2023-05-07T13:26:18;98027.22;;;10.49;79.03
41044;BME280;51680;49.806;18.774;2023-05-07T13:29:20;98027.03;;;10.37;78.99
41044;BME280;51680;49.806;18.774;2023-05-07T13:32:25;98011.78;;;10.29;79.70
41044;BME280;51680;49.806;18.774;2023-05-07T13:35:27;98021.13;;;10.49;79.01
41044;BME280;51680;49.806;18.774;2023-05-07T13:38:29;98020.38;;;10.62;78.68
41044;BME280;51680;49.806;18.774;2023-05-07T13:41:32;98026.94;;;10.54;78.71
41044;BME280;51680;49.806;18.774;2023-05-07T13:44:34;98018.03;;;10.58;78.08
41044;BME280;51680;49.806;18.774;2023-05-07T13:47:36;98017.53;;;10.67;77.83
41044;BME280;51680;49.806;18.774;2023-05-07T13:50:37;98020.56;;;10.59;78.01
41044;BME280;51680;49.806;18.774;2023-05-07T13:53:39;98020.38;;;10.62;77.92
41044;BME280;51680;49.806;18.774;2023-05-07T13:56:42;98027.03;;;10.52;78.34
41044;BME280;51680;49.806;18.774;2023-05-07T13:59:44;98026.72;;;10.58;78.53
41044;BME280;51680;49.806;18.774;2023-05-07T14:02:46;98018.91;;;10.58;79.06
41044;BME280;51680;49.806;18.774;2023-05-07T14:05:47;98027.22;;;10.49;79.09
41044;BME280;51680;49.806;18.774;2023-05-07T14:08:49;98043.72;;;10.17;80.60
41044;BME280;51680;49.806;18.774;2023-05-07T14:11:52;98044.03;;;9.77;82.49
41044;BME280;51680;49.806;18.774;2023-05-07T14:14:54;98034.22;;;9.65;83.19
41044;BME280;51680;49.806;18.774;2023-05-07T14:17:56;98050.63;;;9.67;82.46
41044;BME280;51680;49.806;18.774;2023-05-07T14:20:59;98046.63;;;9.60;82.90
41044;BME280;51680;49.806;18.774;2023-05-07T14:24:01;98055.59;;;9.55;82.82
41044;BME280;51680;49.806;18.774;2023-05-07T14:27:04;98048.75;;;9.52;83.08
41044;BME280;51680;49.806;18.774;2023-05-07T14:30:07;98063.47;;;9.36;83.63
41044;BME280;51680;49.806;18.774;2023-05-07T14:33:08;98060.84;;;9.19;85.16
41044;BME280;51680;49.806;18.774;2023-05-07T14:36:10;98066.31;;;9.13;85.31
41044;BME280;51680;49.806;18.774;2023-05-07T14:39:12;98070.72;;;9.30;84.06
41044;BME280;51680;49.806;18.774;2023-05-07T14:42:15;98071.78;;;9.44;82.68
41044;BME280;51680;49.806;18.774;2023-05-07T14:45:17;98066.88;;;9.55;82.25
41044;BME280;51680;49.806;18.774;2023-05-07T14:48:19;98078.03;;;9.40;82.32
41044;BME280;51680;49.806;18.774;2023-05-07T14:51:20;98068.09;;;9.48;82.32
41044;BME280;51680;49.806;18.774;2023-05-07T14:54:22;98062.41;;;9.57;81.89
41044;BME280;51680;49.806;18.774;2023-05-07T14:57:25;98065.81;;;9.59;81.74
41044;BME280;51680;49.806;18.774;2023-05-07T15:00:28;98076.22;;;9.59;81.33
41044;BME280;51680;49.806;18.774;2023-05-07T15:03:30;98072.25;;;9.69;80.79
41044;BME280;51680;49.806;18.774;2023-05-07T15:06:31;98067.88;;;9.70;80.77
41044;BME280;51680;49.806;18.774;2023-05-07T15:09:33;98071.69;;;9.63;80.73
41044;BME280;51680;49.806;18.774;2023-05-07T15:12:36;98077.47;;;9.69;80.69
41044;BME280;51680;49.806;18.774;2023-05-07T15:15:38;98075.53;;;9.73;80.65
41044;BME280;51680;49.806;18.774;2023-05-07T15:18:40;98076.41;;;9.73;80.52
41044;BME280;51680;49.806;18.774;2023-05-07T15:21:42;98090.84;;;9.45;81.93
41044;BME280;51680;49.806;18.774;2023-05-07T15:24:44;98085.66;;;9.26;82.22
41044;BME280;51680;49.806;18.774;2023-05-07T15:27:47;98088.91;;;9.31;81.51
41044;BME280;51680;49.806;18.774;2023-05-07T15:30:49;98073.41;;;9.28;82.29
41044;BME280;51680;49.806;18.774;2023-05-07T15:33:50;98096.84;;;9.28;81.20
41044;BME280;51680;49.806;18.774;2023-05-07T15:36:54;98101.41;;;9.06;82.07
41044;BME280;51680;49.806;18.774;2023-05-07T15:39:57;98108.56;;;8.83;83.45
41044;BME280;51680;49.806;18.774;2023-05-07T15:43:00;98103.50;;;8.98;82.37
41044;BME280;51680;49.806;18.774;2023-05-07T15:46:02;98107.53;;;9.05;81.95
41044;BME280;51680;49.806;18.774;2023-05-07T15:49:23;98107.16;;;9.13;81.30
41044;BME280;51680;49.806;18.774;2023-05-07T15:52:25;98116.69;;;8.95;83.10
41044;BME280;51680;49.806;18.774;2023-05-07T15:55:28;98104.91;;;8.68;83.69
41044;BME280;51680;49.806;18.774;2023-05-07T15:58:32;98110.16;;;8.48;84.37
41044;BME280;51680;49.806;18.774;2023-05-07T16:01:33;98110.81;;;8.53;84.06